Data for 04/01/2009

Time Sea-Level Adjusted Pressure Absolute Pressure Temperature Relative Humidity Dew Point   
(mb) (inHg) (mb) (inHg) (C) (F) (%) (C) (F)
00:05 1004 29.65 834 24.63 -1.4 29.5 87 -3.3 26.1
00:10 1004 29.65 834 24.63 -1.4 29.5 87 -3.3 26
00:15 1005 29.68 834 24.63 -1.6 29.1 88 -3.3 26.1
00:20 1005 29.68 834 24.63 -1.9 28.6 90 -3.3 26.1
00:25 1005 29.68 834 24.63 -1.8 28.7 91 -3.1 26.4
00:30 1005 29.68 834 24.63 -1.8 28.8 91 -3.1 26.4
00:35 1005 29.68 834 24.63 -1.8 28.8 90 -3.2 26.2
00:40 1005 29.68 834 24.63 -1.8 28.7 89 -3.4 25.9
00:45 1005 29.68 834 24.63 -1.9 28.6 89 -3.4 25.8
00:50 1005 29.68 834 24.63 -1.9 28.5 90 -3.4 25.9
00:55 1005 29.68 834 24.63 -1.7 28.9 90 -3.2 26.2
01:00 1005 29.68 834 24.63 -1.6 29.1 90 -3.1 26.4
01:05 1005 29.68 834 24.63 -1.6 29.1 89 -3.2 26.2
01:10 1005 29.68 834 24.63 -1.6 29.1 88 -3.3 26.1
01:15 1005 29.68 834 24.63 -1.6 29.1 88 -3.4 26
01:20 1005 29.68 834 24.63 -1.7 29 86 -3.7 25.4
01:25 1005 29.68 834 24.63 -1.6 29.1 83 -4.1 24.7
01:30 1005 29.68 834 24.63 -1.5 29.4 83 -4 24.8
01:35 1005 29.68 835 24.66 -1.6 29 86 -3.7 25.4
01:40 1005 29.68 835 24.66 -1.8 28.8 88 -3.6 25.6
01:45 1005 29.68 835 24.66 -1.9 28.5 91 -3.2 26.2
01:50 1006 29.71 835 24.66 -2.1 28.3 91 -3.3 26.1
01:55 1006 29.71 835 24.66 -2.2 28.1 93 -3.2 26.3
01:55 1006 29.71 835 24.66 -2.2 28 93 -3.1 26.3
02:00 1006 29.71 835 24.66 -2.2 28 94 -3.1 26.4
02:05 1006 29.71 835 24.66 -2.4 27.7 94 -3.3 26.1
02:10 1006 29.71 835 24.66 -2.4 27.7 93 -3.4 25.8
02:15 1006 29.71 835 24.66 -2.4 27.8 92 -3.4 25.8
02:20 1006 29.71 835 24.66 -2.3 27.8 92 -3.5 25.8
02:25 1006 29.71 835 24.66 -2.2 28 90 -3.6 25.5
02:30 1006 29.71 835 24.66 -2.2 28 90 -3.6 25.5
02:35 1006 29.71 835 24.66 -2.3 27.8 91 -3.6 25.5
02:40 1006 29.71 835 24.66 -2.5 27.4 92 -3.6 25.5
02:45 1006 29.71 835 24.66 -2.5 27.4 92 -3.7 25.3
02:50 1006 29.71 835 24.66 -2.5 27.4 92 -3.7 25.4
02:55 1006 29.71 835 24.66 -2.5 27.6 90 -3.8 25.1
03:00 1006 29.71 835 24.66 -2.3 27.9 89 -3.8 25.2
03:05 1006 29.71 835 24.66 -2.1 28.2 88 -3.8 25.2
03:10 1006 29.71 835 24.66 -2 28.5 88 -3.7 25.3
03:15 1006 29.71 835 24.66 -1.9 28.6 87 -3.8 25.2
03:20 1006 29.71 835 24.66 -1.9 28.5 88 -3.7 25.4
03:25 1006 29.71 836 24.69 -2 28.5 87 -3.8 25.1
03:30 1006 29.71 836 24.69 -2.1 28.3 88 -3.8 25.2
03:35 1006 29.71 836 24.69 -2.2 28 87 -4.1 24.5
03:40 1006 29.71 836 24.69 -2.2 28.1 86 -4.2 24.4
03:45 1007 29.74 836 24.69 -1.9 28.5 83 -4.5 23.9
03:50 1007 29.74 836 24.69 -1.7 28.9 81 -4.6 23.6
03:55 1007 29.74 836 24.69 -1.6 29.1 79 -4.8 23.4
04:00 1007 29.74 836 24.69 -1.6 29.2 79 -4.8 23.4
04:05 1007 29.74 836 24.69 -1.5 29.2 78 -4.9 23.2
04:10 1007 29.74 836 24.69 -1.6 29.2 78 -5 23
04:15 1007 29.74 836 24.69 -1.6 29.1 78 -5 22.9
04:20 1007 29.74 836 24.69 -1.7 28.9 77 -5.2 22.7
04:25 1007 29.74 836 24.69 -1.8 28.8 77 -5.3 22.5
04:30 1007 29.74 836 24.69 -1.8 28.8 78 -5.1 22.8
04:35 1007 29.74 836 24.69 -2 28.4 78 -5.3 22.4
04:40 1007 29.74 836 24.69 -2 28.4 73 -6.2 20.9
04:45 1007 29.74 836 24.69 -1.9 28.7 73 -6.1 21
04:50 1007 29.74 836 24.69 -1.8 28.7 72 -6.2 20.9
04:55 1007 29.74 836 24.69 -1.8 28.7 72 -6.3 20.7
05:00 1007 29.74 836 24.69 -1.8 28.7 72 -6.3 20.7
05:05 1007 29.74 836 24.69 -1.8 28.7 71 -6.4 20.5
05:10 1007 29.74 837 24.72 -1.9 28.6 71 -6.4 20.4
05:15 1007 29.74 837 24.72 -1.9 28.6 71 -6.4 20.5
05:20 1008 29.77 837 24.72 -1.9 28.5 71 -6.4 20.4
05:25 1008 29.77 837 24.72 -1.9 28.6 71 -6.5 20.4
05:30 1008 29.77 837 24.72 -1.9 28.6 71 -6.5 20.3
05:35 1008 29.77 837 24.72 -1.8 28.7 71 -6.4 20.5
05:40 1008 29.77 837 24.72 -1.8 28.8 71 -6.4 20.4
05:45 1008 29.77 837 24.72 -1.8 28.7 71 -6.5 20.3
05:50 1008 29.77 837 24.72 -1.8 28.7 71 -6.4 20.4
05:55 1008 29.77 837 24.72 -1.8 28.8 71 -6.4 20.4
06:00 1008 29.77 837 24.72 -1.8 28.7 72 -6.3 20.7
06:05 1008 29.77 837 24.72 -1.8 28.8 70 -6.5 20.3
06:10 1008 29.77 838 24.75 -1.8 28.7 72 -6.3 20.7
06:15 1008 29.77 838 24.75 -2 28.4 72 -6.4 20.5
06:20 1008 29.77 838 24.75 -2 28.4 74 -6.1 21.1
06:25 1009 29.8 838 24.75 -2 28.3 74 -6 21.2
06:30 1009 29.8 838 24.75 -2.1 28.2 75 -6 21.3
06:35 1009 29.8 838 24.75 -2.2 28 78 -5.5 22.1
06:40 1009 29.8 838 24.75 -2.4 27.7 81 -5.3 22.5
06:45 1009 29.8 838 24.75 -2.6 27.4 81 -5.4 22.3
06:50 1009 29.8 838 24.75 -2.7 27.1 81 -5.5 22.1
06:55 1009 29.8 838 24.75 -2.7 27.2 81 -5.5 22.1
07:00 1009 29.8 838 24.75 -2.6 27.3 79 -5.8 21.6
07:05 1009 29.8 838 24.75 -2.5 27.4 79 -5.8 21.6
07:10 1009 29.8 838 24.75 -2.5 27.6 78 -5.8 21.5
07:15 1009 29.8 838 24.75 -2.4 27.7 77 -5.9 21.3
07:20 1009 29.8 839 24.78 -2.3 27.8 75 -6.2 20.9
07:25 1009 29.8 839 24.78 -2.5 27.5 81 -5.4 22.3
07:30 1009 29.8 839 24.78 -2.8 27 79 -5.9 21.4
07:35 1010 29.83 839 24.78 -2.5 27.6 75 -6.3 20.6
07:40 1010 29.83 839 24.78 -2.2 28 76 -5.9 21.4
07:45 1010 29.83 839 24.78 -2.3 27.9 79 -5.4 22.4
07:50 1010 29.83 839 24.78 -2.4 27.7 81 -5.3 22.5
07:55 1010 29.83 839 24.78 -2.5 27.4 85 -4.7 23.6
08:00 1010 29.83 839 24.78 -2.8 26.9 89 -4.3 24.2
08:05 1010 29.83 839 24.78 -2.9 26.9 90 -4.3 24.3
08:10 1010 29.83 839 24.78 -2.8 26.9 89 -4.4 24
08:15 1010 29.83 839 24.78 -2.9 26.7 89 -4.5 23.8
08:20 1010 29.83 839 24.78 -3 26.7 88 -4.7 23.5
08:25 1010 29.83 839 24.78 -3.1 26.5 88 -4.8 23.3
08:30 1010 29.83 840 24.81 -3.3 26 90 -4.7 23.6
08:35 1010 29.83 840 24.81 -3.3 26 91 -4.6 23.7
08:40 1010 29.83 840 24.81 -3.3 26 91 -4.6 23.8
08:45 1011 29.85 840 24.81 -3.3 26.1 91 -4.5 23.8
08:50 1011 29.85 840 24.81 -3.1 26.5 90 -4.5 23.9
08:55 1011 29.85 840 24.81 -3.1 26.5 91 -4.4 24.1
09:00 1011 29.85 840 24.81 -3 26.7 91 -4.3 24.3
09:05 1011 29.85 840 24.81 -2.8 26.9 90 -4.2 24.4
09:10 1011 29.85 840 24.81 -2.7 27.1 89 -4.3 24.2
09:15 1011 29.85 840 24.81 -2.7 27.2 88 -4.3 24.2
09:20 1011 29.85 840 24.81 -2.6 27.2 88 -4.3 24.2
09:25 1011 29.85 840 24.81 -2.4 27.7 86 -4.4 24.1
09:30 1011 29.85 840 24.81 -2.1 28.3 85 -4.3 24.2
09:35 1011 29.85 840 24.81 -1.9 28.5 83 -4.4 24
09:40 1011 29.85 840 24.81 -2.1 28.2 85 -4.3 24.3
09:45 1011 29.85 840 24.81 -2.4 27.7 85 -4.7 23.6
09:50 1011 29.85 840 24.81 -2.2 28 84 -4.5 23.8
09:55 1011 29.85 840 24.81 -2.2 28 85 -4.4 24.1
10:00 1011 29.85 840 24.81 -2.4 27.6 86 -4.4 24
10:05 1011 29.85 840 24.81 -2.4 27.7 86 -4.4 24.1
10:10 1011 29.85 840 24.81 -2.1 28.2 83 -4.6 23.7
10:15 1011 29.85 840 24.81 -1.7 28.9 83 -4.3 24.3
10:20 1011 29.85 840 24.81 -1.6 29.1 82 -4.3 24.3
10:25 1011 29.85 840 24.81 -1.6 29.2 79 -4.7 23.6
10:30 1011 29.85 840 24.81 -1.4 29.4 80 -4.4 24
10:35 1011 29.85 840 24.81 -1.2 29.8 78 -4.6 23.7
10:40 1011 29.85 840 24.81 -1.1 30 78 -4.5 24
10:45 1011 29.85 840 24.81 -1.1 30 78 -4.4 24
10:50 1011 29.85 840 24.81 -1 30.2 77 -4.5 23.9
10:55 1011 29.85 840 24.81 -1.3 29.7 77 -4.7 23.5
11:00 1011 29.85 840 24.81 -1.2 29.8 77 -4.8 23.3
11:05 1011 29.85 840 24.81 -0.8 30.6 74 -4.9 23.3
11:10 1011 29.85 840 24.81 -0.4 31.3 73 -4.7 23.5
11:15 1011 29.85 840 24.81 -0.5 31.1 74 -4.6 23.7
11:20 1011 29.85 840 24.81 -0.3 31.4 72 -4.8 23.4
11:25 1011 29.85 840 24.81 -0.2 31.7 70 -5.1 22.9
11:30 1011 29.85 840 24.81 0 32 68 -5.2 22.6
11:35 1011 29.85 840 24.81 0.2 32.4 68 -5 23
11:40 1011 29.85 840 24.81 0.5 32.8 64 -5.6 21.9
11:45 1011 29.85 840 24.81 0.6 33.1 64 -5.3 22.4
11:50 1011 29.85 841 24.83 0.9 33.5 62 -5.5 22.1
11:55 1011 29.85 841 24.83 1.2 34.2 63 -5.1 22.8
12:00 1011 29.85 841 24.83 1.1 34 63 -5.2 22.7
12:05 1011 29.85 841 24.83 -0.1 31.8 69 -5.1 22.8
12:10 1011 29.85 841 24.83 -0.4 31.3 68 -5.6 22
12:15 1011 29.85 841 24.83 -0.5 31.1 67 -5.9 21.4
12:20 1011 29.85 840 24.81 -0.5 31.1 66 -6.1 21
12:25 1011 29.85 840 24.81 0.5 33 60 -6.4 20.4
12:30 1011 29.85 840 24.81 0.3 32.5 63 -6 21.1
12:35 1011 29.85 840 24.81 -0.1 31.8 67 -5.6 21.9
12:40 1011 29.85 840 24.81 -0.3 31.4 66 -6 21.2
12:45 1011 29.85 840 24.81 -0.3 31.5 63 -6.5 20.3
12:50 1011 29.85 840 24.81 0.1 32.2 63 -6.2 20.8
12:55 1011 29.85 840 24.81 -0.1 31.9 63 -6.3 20.7
13:00 1011 29.85 840 24.81 0.6 33.1 59 -6.6 20.1
13:05 1011 29.85 840 24.81 1.8 35.2 54 -6.5 20.3
13:10 1011 29.85 840 24.81 1.6 34.9 57 -6 21.2
13:15 1011 29.85 840 24.81 1.4 34.5 57 -6.2 20.8
13:20 1011 29.85 840 24.81 0.8 33.4 58 -6.5 20.3
13:25 1011 29.85 840 24.81 0.6 33.1 58 -6.7 19.9
13:30 1011 29.85 840 24.81 1.1 34 59 -6.1 21
13:35 1011 29.85 840 24.81 0.8 33.4 57 -6.9 19.6
13:40 1011 29.85 840 24.81 0.6 33 59 -6.6 20.2
13:45 1011 29.85 840 24.81 1.1 33.9 57 -6.5 20.2
13:50 1011 29.85 840 24.81 0.7 33.3 56 -7.1 19.2
13:55 1011 29.85 840 24.81 0.5 32.9 57 -7 19.5
14:00 1011 29.85 840 24.81 0.7 33.2 54 -7.5 18.4
14:05 1011 29.85 840 24.81 1.2 34.2 55 -7 19.5
14:10 1011 29.85 840 24.81 1.3 34.3 54 -7.1 19.2
14:15 1011 29.85 840 24.81 1.9 35.5 52 -6.8 19.7
14:20 1011 29.85 840 24.81 2.1 35.8 52 -6.8 19.8
14:25 1011 29.85 840 24.81 1.5 34.6 52 -7.4 18.6
14:30 1011 29.85 840 24.81 1.6 34.8 49 -8 17.7
14:35 1011 29.85 840 24.81 1.8 35.2 50 -7.7 18.2
14:40 1011 29.85 840 24.81 2.1 35.7 52 -6.8 19.8
14:45 1011 29.85 840 24.81 1.9 35.4 54 -6.4 20.4
14:50 1011 29.85 840 24.81 2 35.6 53 -6.5 20.3
14:55 1011 29.85 840 24.81 2.9 37.2 44 -8.1 17.5
15:00 1011 29.85 840 24.81 3.4 38.2 46 -7.2 19
15:05 1011 29.85 840 24.81 3 37.5 45 -7.7 18.2
15:10 1011 29.85 840 24.81 3.7 38.6 43 -7.9 17.8
15:15 1011 29.85 840 24.81 4.6 40.2 40 -7.8 18
15:20 1011 29.85 840 24.81 4.9 40.8 41 -7.2 19
15:25 1011 29.85 840 24.81 5 41 39 -7.7 18.2
15:30 1010 29.83 840 24.81 4.3 39.7 45 -6.6 20.2
15:35 1010 29.83 840 24.81 4.9 40.8 41 -7.3 18.9
15:40 1010 29.83 840 24.81 5 41.1 41 -7.3 18.9
15:45 1010 29.83 840 24.81 4.9 40.8 40 -7.6 18.3
15:50 1010 29.83 840 24.81 5 41 39 -7.7 18.1
15:55 1010 29.83 840 24.81 4.6 40.2 40 -8 17.7
16:00 1010 29.83 840 24.81 4.6 40.2 41 -7.6 18.4
16:05 1010 29.83 840 24.81 4.7 40.5 40 -7.8 17.9
16:10 1010 29.83 840 24.81 5.1 41.1 38 -8.1 17.3
16:15 1010 29.83 840 24.81 4.9 40.9 38 -8.2 17.2
16:20 1010 29.83 840 24.81 5.1 41.1 38 -8.1 17.4
16:25 1010 29.83 840 24.81 4.7 40.4 40 -7.8 17.9
16:30 1010 29.83 840 24.81 3.8 38.9 41 -8.2 17.2
16:35 1010 29.83 840 24.81 3.8 38.8 40 -8.7 16.3
16:40 1010 29.83 840 24.81 4.1 39.3 39 -8.6 16.6
16:45 1010 29.83 840 24.81 3.7 38.7 38 -9.3 15.3
16:50 1010 29.83 840 24.81 4.6 40.3 39 -8.2 17.3
16:55 1010 29.83 840 24.81 3.7 38.7 42 -8 17.7
17:00 1010 29.83 840 24.81 3.8 38.9 41 -8.1 17.5
17:05 1010 29.83 840 24.81 4 39.1 38 -9 15.8
17:10 1010 29.83 840 24.81 3.6 38.5 41 -8.4 16.9
17:15 1010 29.83 840 24.81 2.7 36.9 43 -8.7 16.3
17:20 1010 29.83 839 24.78 2.6 36.7 46 -7.7 18.1
17:25 1010 29.83 839 24.78 2.8 37.1 44 -8.3 17
17:30 1010 29.83 839 24.78 3 37.4 39 -9.6 14.6
17:35 1010 29.83 839 24.78 3.6 38.6 40 -8.8 16.2
17:40 1010 29.83 839 24.78 3.5 38.3 38 -9.4 15.1
17:45 1010 29.83 839 24.78 3.1 37.7 43 -8.1 17.4
17:50 1010 29.83 839 24.78 3.1 37.6 41 -8.9 16
17:55 1010 29.83 839 24.78 3.2 37.8 40 -9 15.8
18:00 1010 29.83 839 24.78 3.4 38.2 39 -9.4 15.1
18:05 1010 29.83 839 24.78 3.3 37.9 39 -9.4 15
18:10 1010 29.83 839 24.78 3.4 38.2 40 -8.9 16
18:15 1010 29.83 839 24.78 3.3 38 40 -9.1 15.6
18:20 1010 29.83 839 24.78 3.3 37.9 39 -9.5 14.9
18:25 1010 29.83 839 24.78 3.3 38 39 -9.4 15.2
18:30 1010 29.83 839 24.78 3.2 37.8 40 -9.2 15.5
18:35 1010 29.83 839 24.78 3.3 38 39 -9.3 15.3
18:40 1010 29.83 839 24.78 3.2 37.8 41 -8.8 16.1
18:45 1010 29.83 839 24.78 3 37.5 42 -8.6 16.5
18:50 1010 29.83 839 24.78 2.8 37.1 43 -8.5 16.7
18:55 1010 29.83 839 24.78 2.7 36.8 44 -8.4 16.9
19:00 1010 29.83 839 24.78 2.6 36.7 44 -8.5 16.7
19:05 1010 29.83 839 24.78 2.5 36.6 44 -8.4 16.8
19:10 1010 29.83 839 24.78 2.4 36.3 47 -7.8 17.9
19:15 1010 29.83 839 24.78 2.4 36.2 47 -7.9 17.9
19:20 1010 29.83 839 24.78 2.4 36.3 47 -7.7 18.1
19:25 1010 29.83 839 24.78 2.3 36.2 48 -7.6 18.4
19:30 1010 29.83 839 24.78 2.2 36 49 -7.3 18.8
19:35 1010 29.83 839 24.78 2.1 35.8 49 -7.6 18.3
19:40 1010 29.83 839 24.78 2 35.6 49 -7.5 18.4
19:45 1010 29.83 839 24.78 1.9 35.5 50 -7.5 18.6
19:50 1010 29.83 839 24.78 1.9 35.4 51 -7.3 18.9
19:55 1010 29.83 839 24.78 1.9 35.4 50 -7.5 18.5
20:00 1010 29.83 839 24.78 1.9 35.4 50 -7.5 18.5
20:05 1010 29.83 839 24.78 1.8 35.3 52 -7 19.4
20:10 1010 29.83 839 24.78 1.3 34.4 55 -6.7 19.9
20:15 1010 29.83 839 24.78 0.6 33 55 -7.3 18.8
20:20 1010 29.83 839 24.78 0.4 32.7 55 -7.5 18.4
20:25 1010 29.83 839 24.78 0.4 32.8 55 -7.5 18.5
20:30 1010 29.83 839 24.78 0.6 33 56 -7.1 19.2
20:35 1010 29.83 839 24.78 0.4 32.8 57 -7.2 19
20:40 1010 29.83 839 24.78 0.2 32.4 63 -6.1 21
20:45 1010 29.83 839 24.78 -0.5 31.2 64 -6.4 20.5
20:50 1010 29.83 839 24.78 -0.7 30.8 65 -6.5 20.4
20:55 1010 29.83 839 24.78 -0.7 30.7 65 -6.6 20.2
21:00 1010 29.83 839 24.78 -0.8 30.5 65 -6.6 20.1
21:05 1010 29.83 839 24.78 -0.9 30.4 66 -6.5 20.4
21:10 1010 29.83 839 24.78 -1 30.2 65 -6.7 20
21:15 1010 29.83 839 24.78 -1 30.1 66 -6.6 20.1
21:20 1010 29.83 839 24.78 -1.1 30 65 -6.8 19.7
21:25 1010 29.83 839 24.78 -1.1 30 65 -6.9 19.6
21:30 1010 29.83 839 24.78 -1.2 29.9 65 -6.9 19.6
21:35 1010 29.83 839 24.78 -1.2 29.8 65 -6.9 19.5
21:40 1010 29.83 839 24.78 -1.1 29.9 65 -6.8 19.7
21:45 1010 29.83 839 24.78 -1.2 29.8 65 -6.9 19.6
21:50 1010 29.83 839 24.78 -1.3 29.7 66 -6.8 19.7
21:55 1010 29.83 839 24.78 -1.3 29.6 65 -7 19.4
22:00 1010 29.83 839 24.78 -1.3 29.6 67 -6.7 19.9
22:05 1009 29.8 839 24.78 -1.2 29.9 66 -6.7 20
22:10 1009 29.8 839 24.78 -1.2 29.9 64 -7.1 19.3
22:15 1009 29.8 839 24.78 -1.1 29.9 64 -7.1 19.1
22:20 1009 29.8 839 24.78 -1.3 29.7 64 -7.2 19
22:25 1009 29.8 839 24.78 -1.4 29.6 62 -7.7 18.2
22:30 1009 29.8 839 24.78 -1.2 29.8 60 -8 17.5
22:35 1009 29.8 839 24.78 -1.3 29.7 62 -7.7 18.2
22:40 1009 29.8 838 24.75 -1.3 29.7 59 -8.4 16.9
22:45 1009 29.8 838 24.75 -1.2 29.9 61 -7.8 18
22:50 1009 29.8 838 24.75 -1 30.2 59 -8 17.5
22:55 1009 29.8 838 24.75 -0.7 30.7 59 -7.7 18.1
23:00 1009 29.8 838 24.75 -0.9 30.4 59 -7.9 17.8
23:05 1009 29.8 838 24.75 -0.7 30.7 58 -8 17.5
23:10 1009 29.8 838 24.75 -0.8 30.6 55 -8.8 16.2
23:15 1009 29.8 838 24.75 -0.5 31.1 54 -8.7 16.4
23:20 1009 29.8 838 24.75 -0.7 30.8 56 -8.4 16.9
23:25 1009 29.8 838 24.75 -0.9 30.4 57 -8.3 17.1
23:30 1009 29.8 838 24.75 -0.9 30.3 55 -8.8 16.2
23:35 1009 29.8 838 24.75 -1.1 30.1 56 -8.8 16.1
23:40 1009 29.8 838 24.75 -1.1 30 56 -8.8 16.1
23:45 1009 29.8 838 24.75 -1.1 30 55 -9.1 15.7
23:50 1009 29.8 838 24.75 -1.2 29.9 56 -9 15.9
23:55 1009 29.8 838 24.75 -1.2 29.8 58 -8.4 16.8
24:00 1009 29.8 838 24.75 -1.3 29.6 59 -8.4 16.8